Lefors, Texas
Current Conditions -  °F | °C
As of 6:55 PM on Wednesday 17 Dec 2014 (Local Time) from KPPA Reporting Station
Light Rain Light Rain  
Wind Chill: 26°   Ceiling: 100
Heat Index: 35°   Visibility: 0.75mi
Dew Point: 34°   Wind: 13mph
Humidity: 98%   Direction: 140°SE
Pressure: 29.99"   Gusts: NA
Location:  35.44°N, 100.81°W
Report Text: KPPA 180055Z AUTO 14011KT 3/4SM -RA OVC001 02/01 A2999 RMK AO2 T00160013 PNO
Loading
Personal Weather Stations






























Interactive Weather Map New forecast layout! Learn more

10-Day Weather Forecast

Advertisements
Track Severe Weather on mobile